Terminal Aerodrome Forecast
Issued by NWS

Home | Current Version | Previous Version | Text Only | Print | Product List | Glossary On
Versions: 1 2 3 4 5 6 7 8 9 10 11 12 13
000
FTUS41 KCAR 132000 AAA
TAFHUL
TAF AMD
KHUL 132046Z 1321/1418 20011KT P6SM OVC080
     FM132300 19011KT P6SM -SHRA OVC050
     FM140300 18011KT 5SM -SHRA BR OVC025
     FM140500 18006KT 3SM -SHRA BR OVC015
     FM141400 21008KT P6SM BKN050=

USA.gov is the U.S. government's official web portal to all federal, state and local government web resources and services.